BBC Orinoco — V2DM2 — position and weather

sailwx.info

Track history (hours):
 
Tides and Currents Weather Stations Pressure Air Temp Water Temp Dewpoint Dewpoint Depression Visibility Wind Speed Wind Dir Waves Ship Positions

BBC Orinoco

Last reported at 2016-Sep-25 17:27 UTC. Time now 2016-Sep-28 01:47 UTC.
Position N 36°21' W 009°01'.

Length 143 m; draft 10.1 m.

Type: Ship. MMSI: 305255000.

Date/timePositionNaut miles runAvg speedWind from/ knotsBaromVisibWave heightAir tempDewpointWater temp
2016-Sep-25 17:27N 36°21' W 009°01'11911.6
2016-Sep-25 07:14N 36°40' W 011°27'3211.2
2016-Sep-25 04:23N 36°45' W 012°06'55312.1
2016-Sep-23 06:30N 37°32' W 023°38'2312.0
2016-Sep-23 04:34N 37°32' W 024°08'1211.8
2016-Sep-23 03:33N 37°32' W 024°23'1211.6
2016-Sep-23 02:34N 37°33' W 024°37'1211.6
2016-Sep-23 01:33N 37°33' W 024°52'1212.2
2016-Sep-23 00:33N 37°33' W 025°07'1211.8
2016-Sep-22 23:33N 37°33' W 025°22'3612.0
2016-Sep-22 20:33N 37°33' W 026°08'9612.0
2016-Sep-22 12:33N 37°32' W 028°09'  
Track history (hours):
 
Tides and Currents Weather Stations Pressure Air Temp Water Temp Dewpoint Dewpoint Depression Visibility Wind Speed Wind Dir Waves Ship Positions

BBC Orinoco

Last reported at 2016-Sep-25 17:27 UTC. Time now 2016-Sep-28 01:47 UTC.
Position N 36°21' W 009°01'.

Length 143 m; draft 10.1 m.

Type: Ship. MMSI: 305255000.

Date/timePositionNaut miles runAvg speedWind from/ knotsBaromVisibWave heightAir tempDewpointWater temp
2016-Sep-25 17:27N 36°21' W 009°01'11911.6
2016-Sep-25 07:14N 36°40' W 011°27'3211.2
2016-Sep-25 04:23N 36°45' W 012°06'55312.1
2016-Sep-23 06:30N 37°32' W 023°38'2312.0
2016-Sep-23 04:34N 37°32' W 024°08'1211.8
2016-Sep-23 03:33N 37°32' W 024°23'1211.6
2016-Sep-23 02:34N 37°33' W 024°37'1211.6
2016-Sep-23 01:33N 37°33' W 024°52'1212.2
2016-Sep-23 00:33N 37°33' W 025°07'1211.8
2016-Sep-22 23:33N 37°33' W 025°22'3612.0
2016-Sep-22 20:33N 37°33' W 026°08'9612.0
2016-Sep-22 12:33N 37°32' W 028°09'  

Dump ship's entire track history